Humphrey, Arkansas
Current Conditions -  °F | °C
As of 2:35 PM on Friday 28 Nov 2014 (Local Time) from KSGT Reporting Station
Overcast Overcast  
Wind Chill: 55°   Ceiling: 500
Heat Index: 55°   Visibility: 0.75mi
Dew Point: 36°   Wind: 14mph
Humidity: 47%   Direction: 150°SSE
Pressure: 30.17"   Gusts: NA
Location:  34.42°N, 91.71°W
Report Text: KSGT 282035Z AUTO 15012KT 3/4SM VV005 13/02 A3017 RMK AO1
Loading
Personal Weather Stations






























Interactive Weather Map New forecast layout! Learn more

10-Day Weather Forecast

Advertisements
Track Severe Weather on mobile